Radium, Kansas
Current Conditions -  °F | °C
As of 10:15 AM on Wednesday 26 Nov 2014 (Local Time) from KGBD Reporting Station
Broken Clouds Broken Clouds  
Wind Chill: 33°   Ceiling: 11000
Heat Index: 43°   Visibility: 10mi
Dew Point: 21°   Wind: 24mph
Humidity: 42%   Direction: 330°NNW
Pressure: 30.19"   Gusts: 32mph
Location:  38.1779°N, 99.1746°W
Report Text: KGBD 261615Z AUTO 33021G28KT 10SM BKN110 06/M06 A3019 RMK AO1
Loading
Personal Weather Stations






























Interactive Weather Map New forecast layout! Learn more

10-Day Weather Forecast

Advertisements
Track Severe Weather on mobile